Terminal Aerodrome Forecast
Issued by NWS

Home | Current Version | Previous Version | Text Only | Print | Product List | Glossary On
Versions: 1 2 3 4 5 6 7 8 9 10 11 12
780
FTUS45 KTFX 191132
TAFHLN
TAF
KHLN 191132Z 1912/2012 26008KT P6SM SCT050 BKN120
     FM192000 27014G22KT P6SM VCTS SCT030CB BKN070
     FM200200 25009KT P6SM SCT050 BKN110=

USA.gov is the U.S. government's official web portal to all federal, state and local government web resources and services.